Time;durP1;ratioP1;P1;durP2;ratioP2;P2;SDS_P1;SDS_P2;PMS_P1;PMS_P2;Temp;Humidity;BMP_temperature;BMP_pressure;BME280_temperature;BME280_humidity;BME280_pressure;Samples;Min_cycle;Max_cycle;Signal;HPM_P1;HPM_P2
2023/12/31 00:08:13;;;;;;;6.57;3.20;;;;;;;18.81;54.41;96668.25;20882195;28;20090;-56
2023/12/31 00:18:33;;;;;;;5.95;3.28;;;;;;;18.77;54.30;96660.75;20858839;28;20652;-57
2023/12/31 00:28:52;;;;;;;4.35;3.15;;;;;;;18.76;54.20;96655.69;20867640;28;20342;-56
2023/12/31 00:39:12;;;;;;;4.50;3.33;;;;;;;18.75;54.24;96649.50;20836672;28;20110;-56
2023/12/31 00:49:32;;;;;;;6.10;3.30;;;;;;;18.72;54.06;96650.16;20848844;28;20049;-56
2023/12/31 00:59:51;;;;;;;4.60;3.30;;;;;;;18.68;54.02;96633.03;20852957;28;20072;-57
2023/12/31 01:10:11;;;;;;;4.20;3.00;;;;;;;18.66;54.12;96624.47;20887856;28;20052;-56
2023/12/31 01:20:30;;;;;;;3.88;2.80;;;;;;;18.63;54.21;96622.38;20843801;28;20397;-56
2023/12/31 01:30:50;;;;;;;5.13;3.28;;;;;;;18.62;54.04;96612.72;20861385;28;20491;-56
2023/12/31 01:41:10;;;;;;;3.85;2.92;;;;;;;18.61;53.93;96603.03;20852208;28;20433;-56
2023/12/31 01:51:30;;;;;;;3.50;2.75;;;;;;;18.59;54.03;96594.47;20874875;28;20048;-56
2023/12/31 02:01:50;;;;;;;4.43;3.05;;;;;;;18.55;54.04;96583.53;20830226;28;20057;-56
2023/12/31 02:12:11;;;;;;;3.10;2.63;;;;;;;18.54;54.09;96570.34;20870260;28;20048;-56
2023/12/31 02:22:30;;;;;;;2.75;2.38;;;;;;;18.50;54.10;96559.44;20869706;28;20417;-56
2023/12/31 02:32:50;;;;;;;3.47;2.67;;;;;;;18.49;53.96;96565.16;20877052;28;20053;-56
2023/12/31 02:43:10;;;;;;;4.75;2.97;;;;;;;18.46;53.93;96557.69;20857663;28;20448;-56
2023/12/31 02:53:30;;;;;;;3.50;2.47;;;;;;;18.45;54.11;96564.22;20843370;28;20485;-56
2023/12/31 03:03:49;;;;;;;3.00;2.70;;;;;;;18.41;53.81;96549.78;20850755;28;20111;-56
2023/12/31 03:14:09;;;;;;;3.55;2.55;;;;;;;18.38;53.80;96537.72;20872541;28;20049;-56
2023/12/31 03:24:30;;;;;;;3.15;2.35;;;;;;;18.34;53.82;96523.31;20865328;28;20048;-56
2023/12/31 03:34:49;;;;;;;4.07;2.33;;;;;;;18.32;53.78;96526.31;20852052;28;20098;-56
2023/12/31 03:45:08;;;;;;;3.05;2.30;;;;;;;18.31;53.77;96510.50;20895474;28;20041;-57
2023/12/31 03:55:28;;;;;;;3.40;2.40;;;;;;;18.27;53.83;96494.16;20848872;28;20634;-56
2023/12/31 04:05:49;;;;;;;3.05;2.35;;;;;;;18.27;53.86;96486.06;20877550;28;20041;-55
2023/12/31 04:16:09;;;;;;;2.67;2.20;;;;;;;18.24;53.66;96484.00;20864813;28;20418;-56
2023/12/31 04:26:28;;;;;;;3.17;2.20;;;;;;;18.22;53.81;96461.97;20851939;28;20044;-55
2023/12/31 04:36:50;;;;;;;2.67;2.00;;;;;;;18.19;53.62;96451.84;20865236;28;20053;-56
2023/12/31 04:47:09;;;;;;;3.70;2.38;;;;;;;18.18;53.56;96452.94;20850773;28;20480;-56
2023/12/31 04:57:29;;;;;;;2.45;2.05;;;;;;;18.14;53.77;96427.75;20864325;28;20053;-57
2023/12/31 05:07:48;;;;;;;2.55;2.25;;;;;;;18.12;53.55;96427.28;20859735;28;20081;-55
2023/12/31 05:18:08;;;;;;;3.38;1.90;;;;;;;18.09;53.58;96409.84;20883457;28;20045;-56
2023/12/31 05:28:27;;;;;;;2.45;2.03;;;;;;;18.07;53.56;96392.41;20856592;28;20052;-57
2023/12/31 05:38:46;;;;;;;2.45;2.10;;;;;;;18.04;53.63;96380.38;20846164;28;20505;-55
2023/12/31 05:49:06;;;;;;;1.90;1.70;;;;;;;18.03;53.59;96367.22;20860727;28;20052;-55
2023/12/31 05:59:25;;;;;;;2.33;2.00;;;;;;;18.01;53.45;96347.88;20853883;28;20060;-56
2023/12/31 06:09:45;;;;;;;2.28;1.90;;;;;;;18.00;53.80;96346.31;20883981;28;20053;-56
2023/12/31 06:20:06;;;;;;;4.07;2.47;;;;;;;18.02;54.42;96327.91;20860225;28;20063;-56
2023/12/31 06:30:25;;;;;;;3.17;2.38;;;;;;;18.05;54.01;96300.28;20859571;28;20045;-56
2023/12/31 06:40:45;;;;;;;4.25;2.30;;;;;;;18.06;53.57;96286.50;20879363;28;20076;-60
2023/12/31 06:51:05;;;;;;;4.90;2.33;;;;;;;18.07;53.64;96276.50;20879220;28;20079;-59
2023/12/31 07:01:24;;;;;;;8.38;3.00;;;;;;;18.09;53.38;96260.78;20827421;28;20053;-60
2023/12/31 07:11:45;;;;;;;8.23;3.47;;;;;;;17.98;51.75;96233.44;20845863;28;20500;-56
2023/12/31 07:22:04;;;;;;;6.43;3.53;;;;;;;18.14;51.27;96217.47;20866978;28;20127;-54
2023/12/31 07:32:24;;;;;;;10.68;5.00;;;;;;;18.09;46.07;96229.25;20858828;28;20037;-54
2023/12/31 07:42:44;;;;;;;17.63;5.45;;;;;;;18.23;50.42;96229.00;20876631;28;20350;-56
2023/12/31 07:53:04;;;;;;;8.35;4.32;;;;;;;18.35;49.96;96226.34;20815401;28;20065;-55
2023/12/31 08:03:24;;;;;;;13.02;4.88;;;;;;;18.47;50.00;96238.31;20852282;28;20566;-54
2023/12/31 08:13:44;;;;;;;9.68;4.82;;;;;;;18.55;49.98;96242.84;20827312;28;20049;-55
2023/12/31 08:24:04;;;;;;;9.95;4.38;;;;;;;18.69;49.95;96232.56;20847083;28;20476;-54
2023/12/31 08:34:23;;;;;;;9.93;4.50;;;;;;;18.77;49.97;96226.28;20827335;28;20061;-55
2023/12/31 08:44:43;;;;;;;8.57;4.30;;;;;;;18.88;49.91;96225.91;20828341;28;20041;-55
2023/12/31 08:55:04;;;;;;;7.82;4.05;;;;;;;18.97;49.79;96215.78;20846994;28;20057;-55
2023/12/31 09:05:24;;;;;;;7.10;4.10;;;;;;;19.08;49.70;96216.94;20881093;28;20410;-56
2023/12/31 09:15:45;;;;;;;7.50;3.88;;;;;;;19.11;49.56;96210.88;20850847;28;20386;-54
2023/12/31 09:26:05;;;;;;;6.00;4.13;;;;;;;19.23;49.59;96212.00;20881886;28;20174;-55
2023/12/31 09:36:24;;;;;;;6.85;3.75;;;;;;;19.30;49.52;96204.94;20892101;28;20126;-56
2023/12/31 09:46:51;;;;;;;9.25;4.13;;;;;;;19.34;49.49;96191.53;20831475;28;20049;-56
2023/12/31 09:57:12;;;;;;;5.82;3.47;;;;;;;19.46;49.49;96174.56;20827641;28;20053;-56
2023/12/31 10:07:32;;;;;;;5.95;3.15;;;;;;;19.53;49.36;96172.09;20833207;28;20421;-56
2023/12/31 10:17:52;;;;;;;5.07;3.42;;;;;;;19.59;49.14;96132.13;20781406;28;20052;-55
2023/12/31 10:28:12;;;;;;;4.35;3.10;;;;;;;19.65;49.25;96112.63;20853247;28;20553;-55
2023/12/31 10:38:48;;;;;;;5.93;3.45;;;;;;;19.73;49.15;96095.50;20839618;28;20052;-56
2023/12/31 10:49:10;;;;;;;5.55;3.38;;;;;;;19.82;49.13;96083.78;20844910;28;20053;-56
2023/12/31 10:59:31;;;;;;;6.15;3.38;;;;;;;19.91;48.95;96076.31;20848524;28;20049;-56
2023/12/31 11:09:50;;;;;;;4.15;3.08;;;;;;;19.91;49.06;96046.56;20852489;28;20122;-55
2023/12/31 11:20:32;;;;;;;3.88;3.10;;;;;;;19.90;49.16;96029.56;20804163;28;20053;-54
2023/12/31 11:30:53;;;;;;;4.85;3.10;;;;;;;19.92;48.99;96019.19;20800189;28;20442;-55
2023/12/31 11:41:13;;;;;;;4.95;2.97;;;;;;;19.92;49.08;96005.69;20861639;28;20083;-55
2023/12/31 11:51:57;;;;;;;5.72;3.13;;;;;;;19.89;49.26;95990.16;20792587;28;20057;-55
2023/12/31 12:02:17;;;;;;;6.28;3.47;;;;;;;19.92;49.23;95951.63;20870802;28;20594;-55
2023/12/31 12:12:37;;;;;;;6.50;3.40;;;;;;;19.97;49.28;95949.78;20815686;28;20060;-55
2023/12/31 12:22:56;;;;;;;7.47;3.60;;;;;;;19.94;49.47;95933.13;20822600;28;20429;-55
2023/12/31 12:33:17;;;;;;;7.50;3.35;;;;;;;19.95;49.38;95915.00;20829420;28;20056;-55
2023/12/31 12:43:37;;;;;;;8.63;3.85;;;;;;;19.94;49.47;95937.78;20878363;28;20398;-55
2023/12/31 12:53:58;;;;;;;5.82;3.70;;;;;;;19.92;49.41;95938.09;20830784;28;20045;-55
2023/12/31 13:04:19;;;;;;;6.95;4.13;;;;;;;19.87;50.39;95897.81;20848421;28;20656;-56
2023/12/31 13:14:38;;;;;;;5.35;3.45;;;;;;;19.88;50.58;95891.28;20815653;28;20049;-55
2023/12/31 13:24:58;;;;;;;5.70;3.20;;;;;;;19.87;50.94;95894.31;20820693;28;20049;-56
2023/12/31 13:35:18;;;;;;;6.05;3.60;;;;;;;19.83;50.70;95891.53;20813914;28;20755;-56
2023/12/31 13:45:38;;;;;;;5.78;3.03;;;;;;;19.75;50.63;95889.78;20862189;28;20037;-55
2023/12/31 13:55:57;;;;;;;5.45;3.35;;;;;;;19.75;50.60;95887.09;20819753;28;20457;-55
2023/12/31 14:06:17;;;;;;;4.72;3.20;;;;;;;19.76;50.26;95885.97;20798846;28;20049;-56
2023/12/31 14:16:38;;;;;;;4.95;3.33;;;;;;;19.73;50.55;95868.50;20821454;28;20057;-56
2023/12/31 14:26:58;;;;;;;4.57;3.30;;;;;;;19.67;50.68;95848.25;20845527;28;20053;-55
2023/12/31 14:37:18;;;;;;;4.43;3.08;;;;;;;19.65;50.48;95820.03;20856788;28;20045;-55
2023/12/31 14:47:39;;;;;;;4.13;2.72;;;;;;;19.62;50.54;95807.19;20860844;28;20052;-54
2023/12/31 14:57:58;;;;;;;3.67;2.90;;;;;;;19.58;50.54;95806.31;20861542;28;20429;-54
2023/12/31 15:08:18;;;;;;;4.18;2.70;;;;;;;19.58;50.46;95788.19;20861836;28;20049;-55
2023/12/31 15:18:37;;;;;;;3.88;2.70;;;;;;;19.52;50.59;95787.69;20847075;28;20389;-56
2023/12/31 15:28:56;;;;;;;4.15;3.00;;;;;;;19.51;50.64;95785.34;20859485;28;20087;-55
2023/12/31 15:39:16;;;;;;;3.58;2.80;;;;;;;19.48;50.63;95786.81;20860695;28;20136;-55
2023/12/31 15:49:36;;;;;;;5.03;2.90;;;;;;;19.43;50.77;95789.78;20874307;28;20041;-55
2023/12/31 15:59:55;;;;;;;3.92;2.60;;;;;;;19.39;50.69;95788.13;20844683;28;20061;-56
2023/12/31 16:10:15;;;;;;;2.90;2.30;;;;;;;19.36;50.79;95800.38;20818783;28;20053;-56
2023/12/31 16:20:34;;;;;;;3.22;2.30;;;;;;;19.34;50.73;95784.50;20855909;28;20049;-56
2023/12/31 16:30:54;;;;;;;4.00;2.60;;;;;;;19.33;50.53;95807.28;20856394;28;20068;-55
2023/12/31 16:41:14;;;;;;;2.85;2.55;;;;;;;19.28;50.77;95801.34;20876612;28;20099;-54
2023/12/31 16:51:33;;;;;;;3.42;2.53;;;;;;;19.25;50.77;95800.13;20829962;28;20068;-55
2023/12/31 17:01:52;;;;;;;2.63;2.30;;;;;;;19.25;50.93;95823.63;20868317;28;20480;-56
2023/12/31 17:12:12;;;;;;;3.42;2.70;;;;;;;19.25;50.69;95820.91;20845099;28;20089;-55
2023/12/31 17:22:35;;;;;;;3.38;2.65;;;;;;;19.22;50.82;95854.03;20836451;28;20072;-55
2023/12/31 17:32:54;;;;;;;3.95;2.60;;;;;;;19.15;50.78;95858.09;20866802;28;20242;-55
2023/12/31 17:43:14;;;;;;;3.72;2.67;;;;;;;19.13;50.72;95854.97;20864923;28;20050;-55
2023/12/31 17:53:34;;;;;;;3.45;2.42;;;;;;;19.10;50.83;95850.25;20864222;28;20051;-55
2023/12/31 18:03:54;;;;;;;4.35;2.50;;;;;;;19.10;50.74;95846.75;20865439;28;20719;-55
2023/12/31 18:14:13;;;;;;;3.08;2.40;;;;;;;19.12;50.86;95822.91;20858358;28;20130;-55
2023/12/31 18:24:32;;;;;;;2.97;2.30;;;;;;;19.11;50.85;95851.00;20824896;28;20056;-55
2023/12/31 18:34:52;;;;;;;3.25;2.30;;;;;;;19.18;50.44;95870.13;20849688;28;20512;-54
2023/12/31 18:45:11;;;;;;;3.40;2.38;;;;;;;19.17;50.59;95882.06;20849747;28;20071;-53
2023/12/31 18:55:31;;;;;;;2.75;2.20;;;;;;;19.27;50.46;95905.09;20874109;28;20065;-56
2023/12/31 19:05:50;;;;;;;3.28;2.50;;;;;;;19.25;50.23;95910.03;20867400;28;20053;-56
2023/12/31 19:16:10;;;;;;;2.90;2.60;;;;;;;19.31;50.03;95914.84;20862088;28;20052;-54
2023/12/31 19:26:29;;;;;;;2.25;2.05;;;;;;;19.39;50.05;95910.44;20877365;28;20064;-55
2023/12/31 19:36:49;;;;;;;2.75;2.45;;;;;;;19.41;49.92;95932.47;20849025;28;20048;-56
2023/12/31 19:47:08;;;;;;;2.35;2.13;;;;;;;19.45;49.65;95924.47;20860508;28;20123;-55
2023/12/31 19:57:28;;;;;;;2.42;2.00;;;;;;;19.50;49.52;95919.63;20873075;28;20079;-55
2023/12/31 20:07:47;;;;;;;2.30;2.10;;;;;;;19.55;49.50;95903.16;20829751;28;20049;-55
2023/12/31 20:18:06;;;;;;;3.13;2.20;;;;;;;19.61;49.36;95919.91;20830664;28;20072;-55
2023/12/31 20:28:26;;;;;;;2.50;2.20;;;;;;;19.68;49.14;95936.31;20856479;28;20045;-55
2023/12/31 20:38:45;;;;;;;2.15;2.00;;;;;;;19.71;49.22;95926.72;20832932;28;20068;-55
2023/12/31 20:49:06;;;;;;;2.33;2.13;;;;;;;19.77;48.96;95928.06;20787953;28;20060;-55
2023/12/31 20:59:26;;;;;;;2.30;2.10;;;;;;;19.81;48.86;95930.84;20799038;28;20402;-54
2023/12/31 21:09:45;;;;;;;2.60;2.40;;;;;;;19.88;48.70;95939.94;20831643;28;20417;-55
2023/12/31 21:20:06;;;;;;;2.00;1.90;;;;;;;19.92;48.57;95913.78;20850970;28;20049;-55
2023/12/31 21:30:26;;;;;;;2.00;1.77;;;;;;;19.94;48.63;95946.66;20843931;28;20056;-55
2023/12/31 21:40:45;;;;;;;2.22;2.00;;;;;;;19.95;48.56;95988.78;20862888;28;20406;-54
2023/12/31 21:51:04;;;;;;;2.35;2.05;;;;;;;19.97;48.55;96001.16;20865360;28;20059;-55
2023/12/31 22:01:24;;;;;;;2.13;1.92;;;;;;;19.99;48.70;96020.53;20864447;28;20053;-55
2023/12/31 22:11:43;;;;;;;2.13;1.70;;;;;;;19.95;48.78;96023.94;20870421;28;20453;-55
2023/12/31 22:22:03;;;;;;;2.08;1.88;;;;;;;19.98;48.63;96029.78;20863575;28;20655;-55
2023/12/31 22:32:23;;;;;;;1.95;1.80;;;;;;;19.92;48.74;96023.84;20862799;28;20548;-56
2023/12/31 22:42:42;;;;;;;1.70;1.60;;;;;;;19.94;48.78;96033.16;20872714;28;20041;-55
2023/12/31 22:53:02;;;;;;;2.10;1.80;;;;;;;19.91;48.88;96036.53;20877580;28;20049;-55
2023/12/31 23:03:22;;;;;;;2.17;1.60;;;;;;;19.91;48.87;96038.47;20862642;28;20051;-55
2023/12/31 23:13:42;;;;;;;1.90;1.77;;;;;;;19.86;48.91;96042.22;20852043;28;20045;-54
2023/12/31 23:24:02;;;;;;;1.50;1.40;;;;;;;19.87;48.82;96041.06;20872830;28;20052;-55
2023/12/31 23:34:21;;;;;;;1.77;1.63;;;;;;;19.82;48.75;96033.22;20902336;28;20048;-55
2023/12/31 23:44:41;;;;;;;1.77;1.60;;;;;;;19.84;48.85;96028.25;20874415;28;20056;-56
2023/12/31 23:55:01;;;;;;;1.77;1.67;;;;;;;19.82;49.01;96008.91;20833631;28;20053;-54
